Terminal Aerodrome Forecast
Issued by NWS

Home | Current Version | Previous Version | Text Only | Print | Product List | Glossary On
Versions: 1 2 3 4 5 6 7 8 9 10 11 12 13 14 15 16 17 18 19 20 21
000
FTAK31 PAFA 231441 AAA
TAFAQT
TAF AMD
PAQT 231441Z 2315/2412 06006KT 2SM -SN BR OVC003
     FM232200 07005KT P6SM OVC007
     FM240300 07006KT P6SM OVC003
     FM240800 08006KT 1/2SM FZFG OVC003=

USA.gov is the U.S. government's official web portal to all federal, state and local government web resources and services.